Time;durP1;ratioP1;P1;durP2;ratioP2;P2;SDS_P1;SDS_P2;PMS_P1;PMS_P2;Temp;Humidity;BMP_temperature;BMP_pressure;BME280_temperature;BME280_humidity;BME280_pressure;Samples;Min_cycle;Max_cycle;Signal;HPM_P1;HPM_P2
2021/03/05 00:01:57;;;;;;;;;38.33;35.67;;;;;;;;4988705;28;112926;-71
2021/03/05 00:04:23;;;;;;;;;37.67;31.00;;;;;;;;4988833;28;113621;-71
2021/03/05 00:06:49;;;;;;;;;26.67;25.67;;;;;;;;4983670;28;114297;-72
2021/03/05 00:09:15;;;;;;;;;30.33;27.00;;;;;;;;4986924;28;112908;-72
2021/03/05 00:11:41;;;;;;;;;34.67;31.33;;;;;;;;4986065;28;113818;-72
2021/03/05 00:14:07;;;;;;;;;32.00;29.00;;;;;;;;4984211;28;113984;-72
2021/03/05 00:16:32;;;;;;;;;35.33;34.00;;;;;;;;4989460;28;112101;-72
2021/03/05 00:18:59;;;;;;;;;32.33;30.00;;;;;;;;4986632;28;114472;-72
2021/03/05 00:21:25;;;;;;;;;36.33;28.33;;;;;;;;4985065;28;112057;-72
2021/03/05 00:23:51;;;;;;;;;37.67;34.67;;;;;;;;4988143;28;113414;-71
2021/03/05 00:26:17;;;;;;;;;37.00;32.00;;;;;;;;4983926;28;114148;-72
2021/03/05 00:28:43;;;;;;;;;35.00;27.67;;;;;;;;4986920;28;111853;-72
2021/03/05 00:31:09;;;;;;;;;36.00;30.00;;;;;;;;4985413;28;113450;-71
2021/03/05 00:33:35;;;;;;;;;35.00;30.33;;;;;;;;4985782;28;115114;-71
2021/03/05 00:36:02;;;;;;;;;37.67;33.00;;;;;;;;4987338;28;111982;-71
2021/03/05 00:38:28;;;;;;;;;35.33;31.67;;;;;;;;4987807;28;113722;-72
2021/03/05 00:40:55;;;;;;;;;38.67;33.33;;;;;;;;4987810;28;112946;-71
2021/03/05 00:43:21;;;;;;;;;31.33;28.67;;;;;;;;4984274;28;113628;-71
2021/03/05 00:45:47;;;;;;;;;35.67;34.67;;;;;;;;4986819;28;114306;-71
2021/03/05 00:48:13;;;;;;;;;41.00;34.33;;;;;;;;4984528;28;113658;-71
2021/03/05 00:50:39;;;;;;;;;29.00;28.67;;;;;;;;4986522;28;113595;-71
2021/03/05 00:53:06;;;;;;;;;39.33;31.33;;;;;;;;4984958;28;114363;-71
2021/03/05 00:55:32;;;;;;;;;35.67;32.33;;;;;;;;4985142;28;112054;-71
2021/03/05 00:57:59;;;;;;;;;31.00;30.33;;;;;;;;4986384;28;114652;-71
2021/03/05 01:00:26;;;;;;;;;37.00;30.33;;;;;;;;4987062;28;114077;-71
2021/03/05 01:02:52;;;;;;;;;41.67;35.00;;;;;;;;4987346;28;113646;-71
2021/03/05 01:05:18;;;;;;;;;32.00;29.67;;;;;;;;4982459;28;113926;-71
2021/03/05 01:07:44;;;;;;;;;35.00;31.33;;;;;;;;4987339;28;112170;-71
2021/03/05 01:10:12;;;;;;;;;33.33;32.67;;;;;;;;4985321;28;113441;-71
2021/03/05 01:12:38;;;;;;;;;36.33;31.33;;;;;;;;4985247;28;114937;-71
2021/03/05 01:15:05;;;;;;;;;37.67;32.67;;;;;;;;4986562;28;112369;-72
2021/03/05 01:17:31;;;;;;;;;31.67;30.67;;;;;;;;4985365;28;112438;-72
2021/03/05 01:19:57;;;;;;;;;35.33;30.00;;;;;;;;4989968;28;114014;-71
2021/03/05 01:22:23;;;;;;;;;41.67;35.00;;;;;;;;4983692;28;114216;-72
2021/03/05 01:24:49;;;;;;;;;38.67;32.00;;;;;;;;4987273;28;113906;-71
2021/03/05 01:27:15;;;;;;;;;32.00;30.67;;;;;;;;4984617;28;112046;-71
2021/03/05 01:29:42;;;;;;;;;23.33;19.00;;;;;;;;4986444;28;113533;-71
2021/03/05 01:32:08;;;;;;;;;38.67;36.33;;;;;;;;4983997;28;114342;-71
2021/03/05 01:34:34;;;;;;;;;35.00;32.33;;;;;;;;4985619;28;111820;-71
2021/03/05 01:37:00;;;;;;;;;29.67;25.00;;;;;;;;4987417;28;113373;-72
2021/03/05 01:39:26;;;;;;;;;32.33;32.00;;;;;;;;4984782;28;113352;-71
2021/03/05 01:41:52;;;;;;;;;43.00;35.67;;;;;;;;4994870;28;112176;-71
2021/03/05 01:44:19;;;;;;;;;35.67;29.67;;;;;;;;4987126;28;114299;-71
2021/03/05 01:46:45;;;;;;;;;35.33;29.67;;;;;;;;4991062;28;112337;-74
2021/03/05 01:49:11;;;;;;;;;34.00;30.00;;;;;;;;4989261;28;113400;-72
2021/03/05 01:51:38;;;;;;;;;44.33;35.67;;;;;;;;4988296;28;113955;-72
2021/03/05 01:54:05;;;;;;;;;34.00;31.33;;;;;;;;4985807;28;111861;-72
2021/03/05 01:56:33;;;;;;;;;39.33;34.00;;;;;;;;4988654;28;113687;-72
2021/03/05 01:58:59;;;;;;;;;39.00;30.67;;;;;;;;4986816;28;114041;-72
2021/03/05 02:01:26;;;;;;;;;34.67;30.00;;;;;;;;4986538;28;112421;-74
2021/03/05 02:03:52;;;;;;;;;32.67;30.67;;;;;;;;4992541;28;113718;-71
2021/03/05 02:06:19;;;;;;;;;29.00;28.00;;;;;;;;4985888;28;111989;-72
2021/03/05 02:08:45;;;;;;;;;39.00;33.00;;;;;;;;4995673;28;113580;-71
2021/03/05 02:11:11;;;;;;;;;33.33;32.33;;;;;;;;4993519;28;114681;-72
2021/03/05 02:13:37;;;;;;;;;35.00;31.00;;;;;;;;4986219;28;112686;-73
2021/03/05 02:16:07;;;;;;;;;37.67;32.00;;;;;;;;4993762;28;113601;-71
2021/03/05 02:18:40;;;;;;;;;36.67;31.00;;;;;;;;4992814;28;114034;-71
2021/03/05 02:21:16;;;;;;;;;31.33;28.00;;;;;;;;4997174;28;111916;-74
2021/03/05 02:23:49;;;;;;;;;38.67;31.33;;;;;;;;4986756;28;113687;-74
2021/03/05 02:26:34;;;;;;;;;37.67;32.00;;;;;;;;4986884;28;114204;-74
2021/03/05 02:29:20;;;;;;;;;28.67;28.33;;;;;;;;4984320;28;114085;-73
2021/03/05 02:31:49;;;;;;;;;34.00;31.33;;;;;;;;4985818;28;114574;-72
2021/03/05 02:34:17;;;;;;;;;35.00;28.67;;;;;;;;4987821;28;112124;-73
2021/03/05 02:36:48;;;;;;;;;31.33;25.67;;;;;;;;4985535;28;114344;-73
2021/03/05 02:39:15;;;;;;;;;33.33;28.67;;;;;;;;4985315;28;114468;-72
2021/03/05 02:41:41;;;;;;;;;33.67;28.67;;;;;;;;4986448;28;113451;-72
2021/03/05 02:44:10;;;;;;;;;35.33;29.33;;;;;;;;4988696;28;113713;-72
2021/03/05 02:46:41;;;;;;;;;38.33;29.67;;;;;;;;4986234;28;114526;-72
2021/03/05 02:49:09;;;;;;;;;21.67;21.67;;;;;;;;4987655;28;112291;-73
2021/03/05 02:51:36;;;;;;;;;34.00;30.33;;;;;;;;4983857;28;113795;-72
2021/03/05 02:54:03;;;;;;;;;32.33;31.00;;;;;;;;4983304;28;112485;-72
2021/03/05 02:56:30;;;;;;;;;34.00;32.67;;;;;;;;4985894;28;113538;-72
2021/03/05 02:58:56;;;;;;;;;29.67;29.00;;;;;;;;4981822;28;114165;-72
2021/03/05 03:01:24;;;;;;;;;29.67;25.33;;;;;;;;4985822;28;112061;-72
2021/03/05 03:03:53;;;;;;;;;36.33;30.33;;;;;;;;4982800;28;113693;-72
2021/03/05 03:06:20;;;;;;;;;34.33;30.00;;;;;;;;4985072;28;113504;-72
2021/03/05 03:08:47;;;;;;;;;32.00;29.00;;;;;;;;4983660;28;112144;-72
2021/03/05 03:11:14;;;;;;;;;32.33;28.00;;;;;;;;4987830;28;113610;-72
2021/03/05 03:13:40;;;;;;;;;29.33;29.00;;;;;;;;4984649;28;112563;-72
2021/03/05 03:16:07;;;;;;;;;38.67;31.00;;;;;;;;4986728;28;113980;-71
2021/03/05 03:18:34;;;;;;;;;37.00;31.67;;;;;;;;4988014;28;114451;-72
2021/03/05 03:21:01;;;;;;;;;32.67;28.67;;;;;;;;4986692;28;112023;-71
2021/03/05 03:23:28;;;;;;;;;36.00;33.00;;;;;;;;4989490;28;113475;-72
2021/03/05 03:25:54;;;;;;;;;34.00;28.33;;;;;;;;4987584;28;113121;-72
2021/03/05 03:28:20;;;;;;;;;37.33;31.33;;;;;;;;4986473;28;112081;-72
2021/03/05 03:30:47;;;;;;;;;31.33;28.67;;;;;;;;4991535;28;113698;-72
2021/03/05 03:33:13;;;;;;;;;33.67;29.00;;;;;;;;4986749;28;111828;-72
2021/03/05 03:35:40;;;;;;;;;17.00;11.00;;;;;;;;4987515;28;113700;-72
2021/03/05 03:38:08;;;;;;;;;34.33;29.67;;;;;;;;4987547;28;114413;-72
2021/03/05 03:40:35;;;;;;;;;37.67;34.67;;;;;;;;4986121;28;112357;-72
2021/03/05 03:43:01;;;;;;;;;44.00;35.33;;;;;;;;4989050;28;113946;-72
2021/03/05 03:45:30;;;;;;;;;38.00;33.33;;;;;;;;4985218;28;114099;-72
2021/03/05 03:47:57;;;;;;;;;44.00;35.67;;;;;;;;4990061;28;112217;-72
2021/03/05 03:50:25;;;;;;;;;41.67;37.00;;;;;;;;4985528;28;113670;-72
2021/03/05 03:52:52;;;;;;;;;38.67;30.33;;;;;;;;4991621;28;114360;-72
2021/03/05 03:55:18;;;;;;;;;36.00;34.00;;;;;;;;4985711;28;113503;-71
2021/03/05 03:57:47;;;;;;;;;42.00;39.00;;;;;;;;4987451;28;113776;-71
2021/03/05 04:00:14;;;;;;;;;47.00;37.33;;;;;;;;4986672;28;112833;-71
2021/03/05 04:02:40;;;;;;;;;39.00;35.00;;;;;;;;4987300;28;113669;-72
2021/03/05 04:05:09;;;;;;;;;35.00;31.33;;;;;;;;4991387;28;114397;-72
2021/03/05 04:07:36;;;;;;;;;31.33;27.67;;;;;;;;4986516;28;112253;-73
2021/03/05 04:10:03;;;;;;;;;40.00;34.67;;;;;;;;4997001;28;113743;-74
2021/03/05 04:12:29;;;;;;;;;35.33;32.00;;;;;;;;4996668;28;114502;-73
2021/03/05 04:14:56;;;;;;;;;38.33;32.67;;;;;;;;4992595;28;112380;-72
2021/03/05 04:17:22;;;;;;;;;34.67;30.33;;;;;;;;4992309;28;113030;-72
2021/03/05 04:19:48;;;;;;;;;39.33;34.33;;;;;;;;4992088;28;111951;-72
2021/03/05 04:22:15;;;;;;;;;30.00;29.00;;;;;;;;4990437;28;114145;-73
2021/03/05 04:24:41;;;;;;;;;41.00;33.67;;;;;;;;4990576;28;114109;-72
2021/03/05 04:27:07;;;;;;;;;42.00;30.67;;;;;;;;4991696;28;111932;-72
2021/03/05 04:29:33;;;;;;;;;37.00;35.33;;;;;;;;4992258;28;114029;-72
2021/03/05 04:32:00;;;;;;;;;39.67;31.00;;;;;;;;4992101;28;114034;-72
2021/03/05 04:34:26;;;;;;;;;37.67;35.00;;;;;;;;4989495;28;112190;-72
2021/03/05 04:36:52;;;;;;;;;39.67;34.00;;;;;;;;4991129;28;114190;-72
2021/03/05 04:39:18;;;;;;;;;43.67;40.00;;;;;;;;4985668;28;111829;-72
2021/03/05 04:41:44;;;;;;;;;37.00;34.33;;;;;;;;4986550;28;113563;-72
2021/03/05 04:44:10;;;;;;;;;38.67;34.33;;;;;;;;4986682;28;113929;-72
2021/03/05 04:46:36;;;;;;;;;44.33;35.67;;;;;;;;4989704;28;112293;-72
2021/03/05 04:49:03;;;;;;;;;45.67;38.00;;;;;;;;4985039;28;113882;-72
2021/03/05 04:51:29;;;;;;;;;41.00;34.00;;;;;;;;4986802;28;114104;-73
2021/03/05 04:53:55;;;;;;;;;38.67;37.67;;;;;;;;4988457;28;111974;-74
2021/03/05 04:56:21;;;;;;;;;41.33;36.67;;;;;;;;4989209;28;113845;-72
2021/03/05 04:58:47;;;;;;;;;37.00;34.67;;;;;;;;4990065;28;114428;-73
2021/03/05 05:01:13;;;;;;;;;40.33;35.33;;;;;;;;4985384;28;113539;-73
2021/03/05 05:03:39;;;;;;;;;48.00;41.00;;;;;;;;4984739;28;114149;-72
2021/03/05 05:06:06;;;;;;;;;42.33;38.33;;;;;;;;4991140;28;113039;-72
2021/03/05 05:08:32;;;;;;;;;40.33;38.00;;;;;;;;4989026;28;113537;-73
2021/03/05 05:10:58;;;;;;;;;40.00;38.00;;;;;;;;4987347;28;114026;-73
2021/03/05 05:13:24;;;;;;;;;46.67;40.33;;;;;;;;4988884;28;111978;-73
2021/03/05 05:15:50;;;;;;;;;49.33;38.67;;;;;;;;4986297;28;113592;-73
2021/03/05 05:18:16;;;;;;;;;54.67;39.33;;;;;;;;4987347;28;113994;-76
2021/03/05 05:20:42;;;;;;;;;39.33;35.33;;;;;;;;4992013;28;112099;-76
2021/03/05 05:23:09;;;;;;;;;38.67;34.67;;;;;;;;4986762;28;114070;-73
2021/03/05 05:25:35;;;;;;;;;48.00;38.00;;;;;;;;4986684;28;112250;-73
2021/03/05 05:28:01;;;;;;;;;42.00;37.67;;;;;;;;4989081;28;113440;-71
2021/03/05 05:30:27;;;;;;;;;47.00;36.67;;;;;;;;4983812;28;114292;-71
2021/03/05 05:32:53;;;;;;;;;48.67;39.67;;;;;;;;4987181;28;112081;-71
2021/03/05 05:35:19;;;;;;;;;43.33;39.00;;;;;;;;4985352;28;113367;-72
2021/03/05 05:37:45;;;;;;;;;43.33;38.00;;;;;;;;4987015;28;114126;-72
2021/03/05 05:40:13;;;;;;;;;46.67;40.33;;;;;;;;4989716;28;113596;-72
2021/03/05 05:42:39;;;;;;;;;39.67;38.00;;;;;;;;4981566;28;114027;-72
2021/03/05 05:45:06;;;;;;;;;28.00;22.00;;;;;;;;4986725;28;112332;-73
2021/03/05 05:47:35;;;;;;;;;42.33;37.33;;;;;;;;4984562;28;114034;-72
2021/03/05 05:50:03;;;;;;;;;53.00;41.00;;;;;;;;4984218;28;114357;-73
2021/03/05 05:52:30;;;;;;;;;55.33;43.67;;;;;;;;4989174;28;111981;-72
2021/03/05 05:54:56;;;;;;;;;48.33;38.67;;;;;;;;4984041;28;114352;-72
2021/03/05 05:57:24;;;;;;;;;38.33;30.33;;;;;;;;4986904;28;114140;-72
2021/03/05 05:59:50;;;;;;;;;55.67;40.33;;;;;;;;4987271;28;112379;-72
2021/03/05 06:02:16;;;;;;;;;53.33;44.00;;;;;;;;4988164;28;114622;-73
2021/03/05 06:04:43;;;;;;;;;45.33;38.67;;;;;;;;4994445;28;112087;-72
2021/03/05 06:07:09;;;;;;;;;48.33;41.67;;;;;;;;4984569;28;113731;-72
2021/03/05 06:09:35;;;;;;;;;47.33;41.67;;;;;;;;4983609;28;114037;-71
2021/03/05 06:12:11;;;;;;;;;53.33;44.00;;;;;;;;4982125;28;112285;-72
2021/03/05 06:14:38;;;;;;;;;56.33;44.00;;;;;;;;4985065;28;113628;-73
2021/03/05 06:17:04;;;;;;;;;55.33;44.33;;;;;;;;4994517;28;114016;-72
2021/03/05 06:19:30;;;;;;;;;56.50;48.25;;;;;;;;4988169;28;112228;-73
2021/03/05 06:21:56;;;;;;;;;64.50;50.25;;;;;;;;4986901;28;114412;-73
2021/03/05 06:24:22;;;;;;;;;66.50;49.25;;;;;;;;4988336;28;114238;-71
2021/03/05 06:26:50;;;;;;;;;58.75;48.75;;;;;;;;4988785;28;114580;-72
2021/03/05 06:29:16;;;;;;;;;61.50;49.25;;;;;;;;4983926;28;114758;-70
2021/03/05 06:31:51;;;;;;;;;58.25;47.00;;;;;;;;4989493;28;111925;-70
2021/03/05 06:34:17;;;;;;;;;62.50;46.50;;;;;;;;4984414;28;114191;-73
2021/03/05 06:36:43;;;;;;;;;48.25;43.00;;;;;;;;4984565;28;114454;-73
2021/03/05 06:39:09;;;;;;;;;56.33;43.00;;;;;;;;4988112;28;114386;-73
2021/03/05 06:41:36;;;;;;;;;47.33;41.67;;;;;;;;4986890;28;113560;-73
2021/03/05 06:44:03;;;;;;;;;55.75;45.50;;;;;;;;4985724;28;113850;-74
2021/03/05 06:46:37;;;;;;;;;60.25;45.50;;;;;;;;4990417;28;112401;-73
2021/03/05 06:49:05;;;;;;;;;57.67;46.00;;;;;;;;4985574;28;114307;-73
2021/03/05 06:51:31;;;;;;;;;60.33;47.00;;;;;;;;4984553;28;112153;-72
2021/03/05 06:54:18;;;;;;;;;56.67;46.33;;;;;;;;4992252;28;114052;-72
2021/03/05 06:56:47;;;;;;;;;48.33;39.67;;;;;;;;4981703;28;114854;-72
2021/03/05 06:59:13;;;;;;;;;57.33;44.00;;;;;;;;4982080;28;111908;-73
2021/03/05 07:01:46;;;;;;;;;61.00;49.33;;;;;;;;4984513;28;113660;-71
2021/03/05 07:04:14;;;;;;;;;52.00;44.00;;;;;;;;4985964;28;114088;-78
2021/03/05 07:06:40;;;;;;;;;62.25;48.75;;;;;;;;4982871;28;112447;-72
2021/03/05 07:09:07;;;;;;;;;62.25;49.25;;;;;;;;4985640;28;113814;-72
2021/03/05 07:11:39;;;;;;;;;57.00;43.00;;;;;;;;4983795;28;112594;-72
2021/03/05 07:14:06;;;;;;;;;63.00;48.50;;;;;;;;4985002;28;113595;-74
2021/03/05 07:16:38;;;;;;;;;52.33;44.67;;;;;;;;4981296;28;114105;-72
2021/03/05 07:19:04;;;;;;;;;55.33;45.00;;;;;;;;4984782;28;112692;-72
2021/03/05 07:21:33;;;;;;;;;63.25;46.25;;;;;;;;4981434;28;113710;-84
2021/03/05 07:24:02;;;;;;;;;54.00;40.00;;;;;;;;4985818;28;114206;-82
2021/03/05 07:26:30;;;;;;;;;47.33;40.67;;;;;;;;4979993;28;112508;-73
2021/03/05 07:28:57;;;;;;;;;44.33;39.33;;;;;;;;4986457;28;113738;-75
2021/03/05 07:31:24;;;;;;;;;48.33;36.33;;;;;;;;4989842;28;112184;-76
2021/03/05 07:33:51;;;;;;;;;40.67;37.00;;;;;;;;4986685;28;113497;-79
2021/03/05 07:36:18;;;;;;;;;46.67;38.00;;;;;;;;4983417;28;114273;-76
2021/03/05 07:38:49;;;;;;;;;41.00;36.67;;;;;;;;4985502;28;112370;-74
2021/03/05 07:41:18;;;;;;;;;36.33;33.33;;;;;;;;4983861;28;113714;-75
2021/03/05 07:43:44;;;;;;;;;42.00;37.33;;;;;;;;4987620;28;114055;-75
2021/03/05 07:46:10;;;;;;;;;48.00;43.67;;;;;;;;4982954;28;113112;-78
2021/03/05 07:48:36;;;;;;;;;45.33;39.00;;;;;;;;4985672;28;114132;-76
2021/03/05 07:51:03;;;;;;;;;51.33;42.00;;;;;;;;4982954;28;114072;-71
2021/03/05 07:53:29;;;;;;;;;46.00;40.00;;;;;;;;4983684;28;113744;-75
2021/03/05 07:55:55;;;;;;;;;48.67;43.00;;;;;;;;4985370;28;114064;-75
2021/03/05 07:58:43;;;;;;;;;49.00;39.00;;;;;;;;4985172;28;112509;-76
2021/03/05 08:01:09;;;;;;;;;51.67;40.33;;;;;;;;4986266;28;113555;-77
2021/03/05 08:03:51;;;;;;;;;55.67;43.33;;;;;;;;4988484;28;113991;-77
2021/03/05 08:06:29;;;;;;;;;54.67;46.00;;;;;;;;4986235;28;111925;-77
2021/03/05 08:09:08;;;;;;;;;50.33;45.67;;;;;;;;4991431;28;113542;-76
2021/03/05 08:11:36;;;;;;;;;17.00;11.00;;;;;;;;4984237;28;115291;-76
2021/03/05 08:14:17;;;;;;;;;65.00;50.33;;;;;;;;4992951;28;112087;-77
2021/03/05 08:16:43;;;;;;;;;62.33;48.00;;;;;;;;4987289;28;114038;-76
2021/03/05 08:19:27;;;;;;;;;62.33;50.00;;;;;;;;4985757;28;113404;-75
2021/03/05 08:22:02;;;;;;;;;59.00;46.67;;;;;;;;4990806;28;114500;-74
2021/03/05 08:24:29;;;;;;;;;65.67;50.00;;;;;;;;4988778;28;114066;-72
2021/03/05 08:26:59;;;;;;;;;57.75;47.50;;;;;;;;4984933;28;112647;-74
2021/03/05 08:29:44;;;;;;;;;59.67;47.00;;;;;;;;4992055;28;113546;-74
2021/03/05 08:32:24;;;;;;;;;62.33;50.33;;;;;;;;4984604;28;114349;-74
2021/03/05 08:34:50;;;;;;;;;60.33;48.67;;;;;;;;4988155;28;112112;-75
2021/03/05 08:37:27;;;;;;;;;63.00;48.33;;;;;;;;4989524;28;113446;-76
2021/03/05 08:39:53;;;;;;;;;60.33;47.33;;;;;;;;4986550;28;112059;-74
2021/03/05 08:42:35;;;;;;;;;58.33;47.67;;;;;;;;4986178;28;114473;-75
2021/03/05 08:45:09;;;;;;;;;60.00;47.00;;;;;;;;4986593;28;114705;-75
2021/03/05 08:47:35;;;;;;;;;59.33;49.67;;;;;;;;4988309;28;112249;-75
2021/03/05 08:50:01;;;;;;;;;56.33;46.33;;;;;;;;4986407;28;113600;-73
2021/03/05 08:52:29;;;;;;;;;57.67;46.33;;;;;;;;4982895;28;114432;-76
2021/03/05 08:54:55;;;;;;;;;62.33;46.00;;;;;;;;4987957;28;113316;-76
2021/03/05 08:57:21;;;;;;;;;55.67;45.67;;;;;;;;4991366;28;114113;-77
2021/03/05 08:59:51;;;;;;;;;58.33;45.33;;;;;;;;4992610;28;114123;-77
2021/03/05 09:02:17;;;;;;;;;56.33;42.33;;;;;;;;4992313;28;113669;-77
2021/03/05 09:04:43;;;;;;;;;53.00;42.33;;;;;;;;4985369;28;114146;-77
2021/03/05 09:07:12;;;;;;;;;53.50;43.00;;;;;;;;4989694;28;114642;-78
2021/03/05 09:09:38;;;;;;;;;48.00;40.50;;;;;;;;4988239;28;113698;-76
2021/03/05 09:12:08;;;;;;;;;48.25;39.25;;;;;;;;4985419;28;114136;-73
2021/03/05 09:14:34;;;;;;;;;16.75;10.00;;;;;;;;4988275;28;114420;-76
2021/03/05 09:17:01;;;;;;;;;52.25;43.00;;;;;;;;4988797;28;113722;-76
2021/03/05 09:19:34;;;;;;;;;39.75;34.50;;;;;;;;4984480;28;113164;-76
2021/03/05 09:22:09;;;;;;;;;42.50;35.50;;;;;;;;4993359;28;112048;-77
2021/03/05 09:24:51;;;;;;;;;41.50;34.25;;;;;;;;4986999;28;113547;-75
2021/03/05 09:27:17;;;;;;;;;48.75;39.50;;;;;;;;4990630;28;111933;-75
2021/03/05 09:29:43;;;;;;;;;43.25;37.25;;;;;;;;4991461;28;114106;-75
2021/03/05 09:32:10;;;;;;;;;39.50;32.75;;;;;;;;4986390;28;113997;-75
2021/03/05 09:34:47;;;;;;;;;41.25;34.75;;;;;;;;4986410;28;112189;-76
2021/03/05 09:37:14;;;;;;;;;42.00;34.50;;;;;;;;4985549;28;113603;-75
2021/03/05 09:39:42;;;;;;;;;38.50;34.00;;;;;;;;4994454;28;114366;-75
2021/03/05 09:42:08;;;;;;;;;38.00;32.75;;;;;;;;4992683;28;111987;-83
2021/03/05 09:44:40;;;;;;;;;35.50;31.25;;;;;;;;4986821;28;114354;-75
2021/03/05 09:47:06;;;;;;;;;35.00;31.00;;;;;;;;4986457;28;112108;-73
2021/03/05 09:49:33;;;;;;;;;35.50;29.75;;;;;;;;4987377;28;113684;-72
2021/03/05 09:51:59;;;;;;;;;31.00;28.50;;;;;;;;4986900;28;115107;-73
2021/03/05 09:54:33;;;;;;;;;26.25;26.25;;;;;;;;4989435;28;112386;-72
2021/03/05 09:56:59;;;;;;;;;26.25;24.50;;;;;;;;4984214;28;113736;-72
2021/03/05 09:59:39;;;;;;;;;22.25;18.00;;;;;;;;4989395;28;113096;-72
2021/03/05 10:02:05;;;;;;;;;26.75;25.00;;;;;;;;4988465;28;112192;-72
2021/03/05 10:04:31;;;;;;;;;24.00;23.00;;;;;;;;4985395;28;113421;-71
2021/03/05 10:06:59;;;;;;;;;27.33;25.00;;;;;;;;4986516;28;112546;-72
2021/03/05 10:09:25;;;;;;;;;26.00;25.00;;;;;;;;4990094;28;113601;-72
2021/03/05 10:11:51;;;;;;;;;25.00;23.67;;;;;;;;4980502;28;114106;-72
2021/03/05 10:14:22;;;;;;;;;31.00;26.33;;;;;;;;4985796;28;112052;-73
2021/03/05 10:16:48;;;;;;;;;27.00;25.67;;;;;;;;4989431;28;113497;-72
2021/03/05 10:19:15;;;;;;;;;25.33;24.33;;;;;;;;4980740;28;114673;-72
2021/03/05 10:21:42;;;;;;;;;24.67;23.67;;;;;;;;4989632;28;111918;-70
2021/03/05 10:24:10;;;;;;;;;27.67;24.00;;;;;;;;4986911;28;113575;-72
2021/03/05 10:26:36;;;;;;;;;25.00;25.00;;;;;;;;4987496;28;114467;-71
2021/03/05 10:29:03;;;;;;;;;25.67;24.67;;;;;;;;4988486;28;113847;-72
2021/03/05 10:31:42;;;;;;;;;24.00;24.00;;;;;;;;4986012;28;115309;-73
2021/03/05 10:34:18;;;;;;;;;24.33;21.67;;;;;;;;4987893;28;113069;-74
2021/03/05 10:36:44;;;;;;;;;31.33;26.67;;;;;;;;4986682;28;113385;-80
2021/03/05 10:39:11;;;;;;;;;26.00;25.67;;;;;;;;4991996;28;114078;-78
2021/03/05 10:41:37;;;;;;;;;26.67;24.67;;;;;;;;4985943;28;111904;-78
2021/03/05 10:44:03;;;;;;;;;23.25;21.00;;;;;;;;4987832;28;113733;-80
2021/03/05 10:46:31;;;;;;;;;24.25;20.00;;;;;;;;4985088;28;114445;-78
2021/03/05 10:48:57;;;;;;;;;24.00;23.00;;;;;;;;4987217;28;112468;-77
2021/03/05 10:51:23;;;;;;;;;23.50;21.50;;;;;;;;4984971;28;113933;-79
2021/03/05 10:53:49;;;;;;;;;23.00;20.67;;;;;;;;4982831;28;112392;-77
2021/03/05 10:56:16;;;;;;;;;23.33;21.00;;;;;;;;4982546;28;113489;-77
2021/03/05 10:58:42;;;;;;;;;22.00;20.00;;;;;;;;4983987;28;114092;-79
2021/03/05 11:01:08;;;;;;;;;21.00;17.33;;;;;;;;4981485;28;112923;-76
2021/03/05 11:03:34;;;;;;;;;23.75;21.75;;;;;;;;4987117;28;113501;-77
2021/03/05 11:06:00;;;;;;;;;22.00;18.50;;;;;;;;4986689;28;113996;-80
2021/03/05 11:08:26;;;;;;;;;20.50;19.75;;;;;;;;4986058;28;112100;-79
2021/03/05 11:10:52;;;;;;;;;22.00;22.00;;;;;;;;4987309;28;113395;-82
2021/03/05 11:13:20;;;;;;;;;18.50;18.50;;;;;;;;4989005;28;112213;-82
2021/03/05 11:15:46;;;;;;;;;20.25;18.75;;;;;;;;4989655;28;113929;-82
2021/03/05 11:18:12;;;;;;;;;22.50;20.00;;;;;;;;4985826;28;114283;-79
2021/03/05 11:20:38;;;;;;;;;25.75;20.50;;;;;;;;4988183;28;112874;-79
2021/03/05 11:23:04;;;;;;;;;21.00;21.00;;;;;;;;4989568;28;113681;-75
2021/03/05 11:25:30;;;;;;;;;21.25;20.25;;;;;;;;4983740;28;114271;-74
2021/03/05 11:27:56;;;;;;;;;21.00;21.00;;;;;;;;4987132;28;111990;-73
2021/03/05 11:30:23;;;;;;;;;19.00;19.00;;;;;;;;4981498;28;113452;-71
2021/03/05 11:32:49;;;;;;;;;22.50;22.00;;;;;;;;4993214;28;114068;-73
2021/03/05 11:35:15;;;;;;;;;20.00;17.50;;;;;;;;4990635;28;114309;-74
2021/03/05 11:37:41;;;;;;;;;17.00;17.00;;;;;;;;4990027;28;113969;-71
2021/03/05 11:40:08;;;;;;;;;19.25;18.25;;;;;;;;4989732;28;111973;-72
2021/03/05 11:42:34;;;;;;;;;16.50;16.50;;;;;;;;4992020;28;114009;-71
2021/03/05 11:45:04;;;;;;;;;23.75;19.50;;;;;;;;4989818;28;113277;-72
2021/03/05 11:47:31;;;;;;;;;21.50;16.50;;;;;;;;4986363;28;112592;-72
2021/03/05 11:49:57;;;;;;;;;17.50;16.50;;;;;;;;4987408;28;113960;-74
2021/03/05 11:52:23;;;;;;;;;19.25;18.50;;;;;;;;4991776;28;113743;-75
2021/03/05 11:54:49;;;;;;;;;54.00;45.00;;;;;;;;4992449;28;113621;-72
2021/03/05 11:57:15;;;;;;;;;28.50;25.75;;;;;;;;4995103;28;114056;-72
2021/03/05 11:59:41;;;;;;;;;19.00;18.00;;;;;;;;4989589;28;112374;-71
2021/03/05 12:02:07;;;;;;;;;22.50;19.25;;;;;;;;4988125;28;113410;-71
2021/03/05 12:04:34;;;;;;;;;20.75;17.75;;;;;;;;4989126;28;114038;-80
2021/03/05 12:07:00;;;;;;;;;22.75;20.75;;;;;;;;4990049;28;111932;-80
2021/03/05 12:09:26;;;;;;;;;21.75;20.00;;;;;;;;4990460;28;113863;-80
2021/03/05 12:11:52;;;;;;;;;23.50;21.00;;;;;;;;4986093;28;114081;-80
2021/03/05 12:14:18;;;;;;;;;25.50;23.25;;;;;;;;4991348;28;112056;-81
2021/03/05 12:16:44;;;;;;;;;24.50;20.00;;;;;;;;4989475;28;114141;-84
2021/03/05 12:19:10;;;;;;;;;17.00;16.00;;;;;;;;4992340;28;112316;-78
2021/03/05 12:21:37;;;;;;;;;22.00;20.25;;;;;;;;4986953;28;114685;-76
2021/03/05 12:24:03;;;;;;;;;18.00;16.00;;;;;;;;4986208;28;114434;-76
2021/03/05 12:26:29;;;;;;;;;21.00;19.00;;;;;;;;4992322;28;111960;-76
2021/03/05 12:28:55;;;;;;;;;19.50;17.50;;;;;;;;4988056;28;113929;-77
2021/03/05 12:31:21;;;;;;;;;24.00;20.50;;;;;;;;4984056;28;114369;-75
2021/03/05 12:33:47;;;;;;;;;22.75;20.00;;;;;;;;4985831;28;112316;-76
2021/03/05 12:36:13;;;;;;;;;17.25;13.75;;;;;;;;4988393;28;114075;-76
2021/03/05 12:38:42;;;;;;;;;15.25;15.25;;;;;;;;4992244;28;113309;-77
2021/03/05 12:41:08;;;;;;;;;21.25;16.50;;;;;;;;4983738;28;116408;-76
2021/03/05 12:43:34;;;;;;;;;16.75;16.75;;;;;;;;4991495;28;114923;-76
2021/03/05 12:46:00;;;;;;;;;15.25;13.75;;;;;;;;4984033;28;111864;-76
2021/03/05 12:48:26;;;;;;;;;15.50;14.50;;;;;;;;4990653;28;113593;-87
2021/03/05 12:50:52;;;;;;;;;18.00;17.00;;;;;;;;4984447;28;112722;-73
2021/03/05 12:53:19;;;;;;;;;20.00;16.25;;;;;;;;4988038;28;111775;-73
2021/03/05 12:55:46;;;;;;;;;16.75;16.75;;;;;;;;4989081;28;113555;-73
2021/03/05 12:58:12;;;;;;;;;14.50;13.50;;;;;;;;4988559;28;114455;-73
2021/03/05 13:00:41;;;;;;;;;14.75;14.50;;;;;;;;4982398;28;113638;-73
2021/03/05 13:03:07;;;;;;;;;17.25;17.25;;;;;;;;4979893;28;113919;-73
2021/03/05 13:05:33;;;;;;;;;19.00;18.25;;;;;;;;4982207;28;111943;-72
2021/03/05 13:07:59;;;;;;;;;19.75;18.75;;;;;;;;4986170;28;113390;-72
2021/03/05 13:10:25;;;;;;;;;14.75;14.75;;;;;;;;4980404;28;114130;-74
2021/03/05 13:12:52;;;;;;;;;21.50;19.50;;;;;;;;4985256;28;112242;-73
2021/03/05 13:15:18;;;;;;;;;16.50;16.00;;;;;;;;4988714;28;113726;-76
2021/03/05 13:17:44;;;;;;;;;18.50;15.00;;;;;;;;4984570;28;113890;-76
2021/03/05 13:20:10;;;;;;;;;14.50;14.50;;;;;;;;4987968;28;112506;-76
2021/03/05 13:22:38;;;;;;;;;17.25;16.50;;;;;;;;4982563;28;114012;-77
2021/03/05 13:25:04;;;;;;;;;18.50;17.75;;;;;;;;4990903;28;113039;-74
2021/03/05 13:27:30;;;;;;;;;22.25;16.75;;;;;;;;4984435;28;113900;-72
2021/03/05 13:29:57;;;;;;;;;22.00;14.00;;;;;;;;4988699;28;114401;-71
2021/03/05 13:32:23;;;;;;;;;18.75;16.50;;;;;;;;4986089;28;112057;-71
2021/03/05 13:34:49;;;;;;;;;16.25;16.25;;;;;;;;4982471;28;115023;-71
2021/03/05 13:37:15;;;;;;;;;20.75;16.50;;;;;;;;4986018;28;113610;-77
2021/03/05 13:39:41;;;;;;;;;16.25;14.75;;;;;;;;4984649;28;112593;-73
2021/03/05 13:42:08;;;;;;;;;17.50;16.00;;;;;;;;4989259;28;113896;-79
2021/03/05 13:44:34;;;;;;;;;16.00;15.00;;;;;;;;4985774;28;112043;-76
2021/03/05 13:47:00;;;;;;;;;17.50;14.00;;;;;;;;4984295;28;113676;-74
2021/03/05 13:49:26;;;;;;;;;19.25;15.50;;;;;;;;4980466;28;114349;-76
2021/03/05 13:51:52;;;;;;;;;18.25;18.00;;;;;;;;4986397;28;112368;-73
2021/03/05 13:54:18;;;;;;;;;24.00;19.25;;;;;;;;4980183;28;114383;-73
2021/03/05 13:56:44;;;;;;;;;18.50;15.50;;;;;;;;4983900;28;114173;-76
2021/03/05 13:59:10;;;;;;;;;19.00;17.50;;;;;;;;4982203;28;112098;-76
2021/03/05 14:01:36;;;;;;;;;15.25;13.50;;;;;;;;4988508;28;113521;-76
2021/03/05 14:04:03;;;;;;;;;20.50;16.75;;;;;;;;4982425;28;111910;-74
2021/03/05 14:06:29;;;;;;;;;19.50;18.75;;;;;;;;4982539;28;114562;-69